KNSE/NSE METAR and TAF weather

Enter ICAO airport designator
Station Type Date Time Source
KNSE METAR 2019/10/23 03:45 UTC NOAA

KNSE 230345Z 31005KT 10SM BKN250 12/08 A3014 RMK SLP192


Station Type Date Time Source
KNSE Decoded METAR 2019/10/23 03:45 UTC NOAA

MILTON WHITING FIELD (NORTH), FL, United States (KNSE) 30-44N 87-01W 60M
Oct 22, 2019 - 11:45 PM EDT / 2019.10.23 0345 UTC
Wind: from the NW (310 degrees) at 6 MPH (5 KT):0
Visibility: 10 mile(s):0
Sky conditions: mostly cloudy
Temperature: 53 F (12 C)
Dew Point: 46 F (8 C)
Relative Humidity: 76%
Pressure (altimeter): 30.14 in. Hg (1020 hPa)
ob: KNSE 230345Z 31005KT 10SM BKN250 12/08 A3014 RMK SLP192
cycle: 4

Station Type Date Time Source
KNSE TAF 2019/10/23 07:23 UTC NOAA

TAF KNSE 2307/2407 33007KT 9999 FEW250 QNH3008INS
FM231700 03008G15KT 9999 SCT250 QNH3007INS AUTOMATED SENSOR METWATCH 2307 TIL 2311 T08/2312Z T19/2320Z FN00220

Example: see airport list